Ancora, New Jersey
Current Conditions -  °F | °C
As of 5:54 PM on Tuesday 27 Jan 2015 (Local Time) from KACY Reporting Station
Scattered Clouds Scattered Clouds  
Wind Chill: 23°   Ceiling: Unl
Heat Index: 30°   Visibility: 10mi
Dew Point: 15°   Wind: 7mph
Humidity: 54%   Direction: 300°WNW
Pressure: 29.73"   Gusts: NA
Location:  39.637°N, 74.7602°W
Report Text: KACY 272254Z 30006KT 10SM SCT043 M01/M09 A2973 RMK AO2 SLP067 T10111094
Loading
Personal Weather Stations






























Interactive Weather Map New forecast layout! Learn more

10-Day Weather Forecast

Advertisements
Track Severe Weather on mobile